Prairie View, KS (67664)

3:30 PM CST on December 26, 2014 (GMT -0600)
Sarrada Farms 0.1 mi W | Change Station
CLOSE
Current Station
Personal Weather Station
Location: Logan, KS
Elevation: 2021 ft
Nearby Weather Stations

Elev 2021 ft 39.66 °N, 99.58 °W | Updated 9 seconds ago

Snow
Snow
27.7 °F
Feels Like 18 °F
N
10.1
Wind Variable Wind from NNE
Gusts 14.0 mph

Today
High -- | Low -- °F
--% Chance of Precip.
Yesterday
High -- | Low -- °F
Precip. -- in
7:58 AM 5:19 PM
Waxing Crescent, 29% visible
Pressure 29.98 in
Visibility 1.0 miles
Clouds Scattered Clouds 700 ft
Mostly Cloudy 1400 ft
Overcast 3500 ft
Windchill 18 °F
Dew Point 25 °F
Humidity 90%
Rainfall 0.00 in
Snow Depth Not available.
UV 0 out of 12
Pollen .10 out of 12
Air Quality Not available.
Flu Activity Not available.
SPECI KHLC 262124Z AUTO 36011KT 1SM -SN BR SCT007 BKN014 OVC035 M02/M04 A2998 RMK AO2 P0000 T10221044

More Conditions Fewer Conditions

Pressure 29.98 in
Visibility 1.0 miles
Clouds Scattered Clouds 700 ft
Mostly Cloudy 1400 ft
Overcast 3500 ft
Windchill 18 °F
Dew Point 25 °F
Humidity 90%
Rainfall 0.00 in
Snow Depth Not available.
UV 0 out of 12
Pollen .10 out of 12
Air Quality Not available.
Flu Activity Not available.
SPECI KHLC 262124Z AUTO 36011KT 1SM -SN BR SCT007 BKN014 OVC035 M02/M04 A2998 RMK AO2 P0000 T10221044

More Conditions Fewer Conditions

10-Day Weather Forecast

Almanac

Astronomy

Dec. 26, 2014 Rise Set
Actual Time
Civil Twilight
Nautical Twilight
Astronomical Twilight
Moon
Length of Visible Light
Length of Day
Tomorrow will be .
, % of the Moon is Illuminated

Today's Extremes

State Highs State Lows

Community

WunderPhotos

Upload Photos

1,780,719 photos uploaded!

WunderBlogs® & News

Nearby

Air Quality

  Air Quality AQ Index Pollutant
Not available.

Snow Depth

Station Depth Elevation

Earthquake Activity

City Distance Mag. Time & Date
Minimum magnitude displayed is 2.5.

Coastal Water Temperatures

Place Temperature

Nearby Weather Stations